createdAt,value
2022-11-20T00:01:32.586Z,1.40
2022-11-20T00:04:00.906Z,1.40
2022-11-20T00:06:29.499Z,1.40
2022-11-20T00:08:59.324Z,1.40
2022-11-20T00:11:28.696Z,1.40
2022-11-20T00:13:59.073Z,1.40
2022-11-20T00:16:28.074Z,1.40
2022-11-20T00:18:55.669Z,1.40
2022-11-20T00:21:25.826Z,1.40
2022-11-20T00:23:55.250Z,1.40
2022-11-20T00:26:24.458Z,1.40
2022-11-20T00:29:02.258Z,1.40
2022-11-20T00:31:31.167Z,1.40
2022-11-20T00:33:58.629Z,1.40
2022-11-20T00:36:27.983Z,1.40
2022-11-20T00:38:57.309Z,1.40
2022-11-20T00:41:26.209Z,1.50
2022-11-20T00:43:54.864Z,1.50
2022-11-20T00:46:24.715Z,1.60
2022-11-20T00:48:52.007Z,1.60
2022-11-20T00:51:21.815Z,1.70
2022-11-20T00:53:49.360Z,1.70
2022-11-20T00:56:19.173Z,1.70
2022-11-20T00:58:48.019Z,1.70
2022-11-20T01:01:21.179Z,1.70
2022-11-20T01:03:50.832Z,1.70
2022-11-20T01:06:23.348Z,1.80
2022-11-20T01:08:52.154Z,1.80
2022-11-20T01:11:24.129Z,1.80
2022-11-20T01:13:52.512Z,1.80
2022-11-20T01:16:29.065Z,1.90
2022-11-20T01:18:59.259Z,1.90
2022-11-20T01:21:38.262Z,1.80
2022-11-20T01:24:08.940Z,1.80
2022-11-20T01:26:38.516Z,1.80
2022-11-20T01:29:07.646Z,1.80
2022-11-20T01:31:37.889Z,1.80
2022-11-20T01:34:11.737Z,1.90
2022-11-20T01:36:39.718Z,1.80
2022-11-20T01:39:21.220Z,1.90
2022-11-20T01:42:10.050Z,1.90
2022-11-20T01:44:49.894Z,1.90
2022-11-20T01:47:46.018Z,2.00
2022-11-20T01:50:15.449Z,2.00
2022-11-20T01:52:50.572Z,2.00
2022-11-20T01:55:28.021Z,2.00
2022-11-20T01:57:56.779Z,1.90
2022-11-20T02:00:24.353Z,1.90
2022-11-20T02:03:27.383Z,1.80
2022-11-20T02:06:07.479Z,1.90
2022-11-20T02:08:36.232Z,1.90
2022-11-20T02:11:03.629Z,1.90
2022-11-20T02:13:46.040Z,1.90
2022-11-20T02:16:20.844Z,1.90
2022-11-20T02:18:48.691Z,1.90
2022-11-20T02:21:31.166Z,1.90
2022-11-20T02:23:58.828Z,1.90
2022-11-20T02:26:28.802Z,1.90
2022-11-20T02:28:56.302Z,1.90
2022-11-20T02:31:23.490Z,1.90
2022-11-20T02:33:57.015Z,1.90
2022-11-20T02:36:27.273Z,1.80
2022-11-20T02:38:55.103Z,1.80
2022-11-20T02:41:23.200Z,1.80
2022-11-20T02:43:50.452Z,1.80
2022-11-20T02:46:17.688Z,1.70
2022-11-20T02:48:44.946Z,1.70
2022-11-20T02:51:12.140Z,1.70
2022-11-20T02:53:39.420Z,1.70
2022-11-20T02:56:07.246Z,1.80
2022-11-20T02:58:34.528Z,1.80
2022-11-20T03:01:01.893Z,1.80
2022-11-20T03:03:29.209Z,1.80
2022-11-20T03:05:56.488Z,1.80
2022-11-20T03:08:23.720Z,1.70
2022-11-20T03:10:51.210Z,1.70
2022-11-20T03:13:18.644Z,1.70
2022-11-20T03:15:45.955Z,1.80
2022-11-20T03:18:14.668Z,1.80
2022-11-20T03:20:41.955Z,1.80
2022-11-20T03:23:09.196Z,1.90
2022-11-20T03:25:36.655Z,1.80
2022-11-20T03:28:04.046Z,1.80
2022-11-20T03:30:31.396Z,1.80
2022-11-20T03:32:58.603Z,1.80
2022-11-20T03:35:26.864Z,1.80
2022-11-20T03:37:54.248Z,1.80
2022-11-20T03:40:21.500Z,1.80
2022-11-20T03:42:48.925Z,1.80
2022-11-20T03:45:19.887Z,1.70
2022-11-20T03:47:47.768Z,1.70
2022-11-20T03:50:15.828Z,1.60
2022-11-20T03:52:43.482Z,1.70
2022-11-20T03:55:11.020Z,1.70
2022-11-20T03:57:38.263Z,1.70
2022-11-20T04:00:06.701Z,1.70
2022-11-20T04:02:33.956Z,1.70
2022-11-20T04:05:01.253Z,1.60
2022-11-20T04:07:28.691Z,1.70
2022-11-20T04:09:55.931Z,1.60
2022-11-20T04:12:23.167Z,1.70
2022-11-20T04:14:50.641Z,1.70
2022-11-20T04:17:17.825Z,1.70
2022-11-20T04:19:45.073Z,1.70
2022-11-20T04:22:13.275Z,1.70
2022-11-20T04:24:40.617Z,1.70
2022-11-20T04:27:08.099Z,1.70
2022-11-20T04:29:35.289Z,1.70
2022-11-20T04:32:02.596Z,1.70
2022-11-20T04:34:29.925Z,1.80
2022-11-20T04:36:58.281Z,1.80
2022-11-20T04:39:25.613Z,1.80
2022-11-20T04:42:12.944Z,1.80
2022-11-20T04:44:40.263Z,1.90
2022-11-20T04:47:07.525Z,1.90
2022-11-20T04:49:35.039Z,1.90
2022-11-20T04:52:02.528Z,1.80
2022-11-20T04:54:29.815Z,1.80
2022-11-20T04:56:57.140Z,1.80
2022-11-20T04:59:24.507Z,1.90
2022-11-20T05:01:52.097Z,1.90
2022-11-20T05:04:21.063Z,2.00
2022-11-20T05:06:48.328Z,2.00
2022-11-20T05:09:15.563Z,1.90
2022-11-20T05:11:42.893Z,1.90
2022-11-20T05:14:10.197Z,2.00
2022-11-20T05:16:37.968Z,1.90
2022-11-20T05:19:05.350Z,1.90
2022-11-20T05:21:33.476Z,1.90
2022-11-20T05:24:01.054Z,1.90
2022-11-20T05:26:28.349Z,2.00
2022-11-20T05:28:55.588Z,2.00
2022-11-20T05:31:27.561Z,2.00
2022-11-20T05:33:56.808Z,2.00
2022-11-20T05:36:24.815Z,2.00
2022-11-20T05:38:55.497Z,2.00
2022-11-20T05:41:26.275Z,2.00
2022-11-20T05:43:53.559Z,2.10
2022-11-20T05:46:27.739Z,2.10
2022-11-20T05:48:57.333Z,2.00
2022-11-20T05:51:24.961Z,2.00
2022-11-20T05:53:52.333Z,2.00
2022-11-20T05:56:21.627Z,2.00
2022-11-20T05:58:49.620Z,2.10
2022-11-20T06:01:36.959Z,2.00
2022-11-20T06:04:04.356Z,2.00
2022-11-20T06:06:31.709Z,2.10
2022-11-20T06:09:00.180Z,2.10
2022-11-20T06:11:27.537Z,2.10
2022-11-20T06:13:54.805Z,2.20
2022-11-20T06:16:22.902Z,2.20
2022-11-20T06:18:50.558Z,2.20
2022-11-20T06:21:22.491Z,2.30
2022-11-20T06:23:50.213Z,2.30
2022-11-20T06:26:23.983Z,2.30
2022-11-20T06:28:52.560Z,2.30
2022-11-20T06:31:22.273Z,2.30
2022-11-20T06:33:50.025Z,2.30
2022-11-20T06:36:19.605Z,2.30
2022-11-20T06:38:47.679Z,2.30
2022-11-20T06:41:20.973Z,2.20
2022-11-20T06:43:49.648Z,2.20
2022-11-20T06:46:21.246Z,2.30
2022-11-20T06:48:49.839Z,2.30
2022-11-20T06:51:17.673Z,2.40
2022-11-20T06:53:45.106Z,2.30
2022-11-20T06:56:12.402Z,2.30
2022-11-20T06:58:39.768Z,2.30
2022-11-20T07:01:12.354Z,2.30
2022-11-20T07:03:40.501Z,2.30
2022-11-20T07:06:07.879Z,2.40
2022-11-20T07:08:35.994Z,2.40
2022-11-20T07:11:06.326Z,2.40
2022-11-20T07:13:34.187Z,2.40
2022-11-20T07:16:03.469Z,2.40
2022-11-20T07:18:31.131Z,2.50
2022-11-20T07:21:05.139Z,2.50
2022-11-20T07:23:32.421Z,2.60
2022-11-20T07:26:03.569Z,2.60
2022-11-20T07:28:31.120Z,2.70
2022-11-20T07:30:58.386Z,2.70
2022-11-20T07:33:25.935Z,2.70
2022-11-20T07:35:53.111Z,2.60
2022-11-20T07:38:20.592Z,2.70
2022-11-20T07:40:47.911Z,2.70
2022-11-20T07:43:15.215Z,2.70
2022-11-20T07:45:43.195Z,2.70
2022-11-20T07:48:10.517Z,2.80
2022-11-20T07:50:37.854Z,2.90
2022-11-20T07:53:08.839Z,2.90
2022-11-20T07:55:36.072Z,3.00
2022-11-20T07:58:03.434Z,3.10
2022-11-20T08:00:30.779Z,3.10
2022-11-20T08:02:58.039Z,3.20
2022-11-20T08:05:25.351Z,3.20
2022-11-20T08:07:52.890Z,3.30
2022-11-20T08:10:20.219Z,3.30
2022-11-20T08:13:07.404Z,3.30
2022-11-20T08:15:35.543Z,3.30
2022-11-20T08:21:02.419Z,3.30
2022-11-20T08:23:29.725Z,3.30
2022-11-20T08:25:56.978Z,3.30
2022-11-20T08:28:24.296Z,3.40
2022-11-20T08:30:51.716Z,3.40
2022-11-20T08:33:19.526Z,3.40
2022-11-20T08:35:46.965Z,3.50
2022-11-20T08:38:14.418Z,3.50
2022-11-20T08:40:41.737Z,3.50
2022-11-20T08:43:08.959Z,3.60
2022-11-20T08:45:36.332Z,3.60
2022-11-20T08:48:04.713Z,3.70
2022-11-20T08:50:33.957Z,3.80
2022-11-20T08:53:07.758Z,3.80
2022-11-20T08:55:36.858Z,3.80
2022-11-20T08:58:08.265Z,3.80
2022-11-20T09:00:35.852Z,3.80
2022-11-20T09:03:03.384Z,3.80
2022-11-20T09:05:30.834Z,3.80
2022-11-20T09:07:59.395Z,3.80
2022-11-20T09:10:27.789Z,3.80
2022-11-20T09:12:59.016Z,3.80
2022-11-20T09:15:26.989Z,3.90
2022-11-20T09:17:56.189Z,3.80
2022-11-20T09:20:23.940Z,3.90
2022-11-20T09:22:51.371Z,3.90
2022-11-20T09:25:19.292Z,3.90
2022-11-20T09:27:47.216Z,4.00
2022-11-20T09:30:16.418Z,4.00
2022-11-20T09:32:44.378Z,4.00
2022-11-20T09:35:12.183Z,4.00
2022-11-20T09:37:39.528Z,4.10
2022-11-20T09:40:07.989Z,4.20
2022-11-20T09:42:35.307Z,4.40
2022-11-20T09:45:43.932Z,4.40
2022-11-20T09:48:13.921Z,4.40
2022-11-20T09:51:17.643Z,4.40
2022-11-20T09:54:01.607Z,4.50
2022-11-20T09:56:29.974Z,4.50
2022-11-20T09:59:09.803Z,4.50
2022-11-20T10:01:41.899Z,4.60
2022-11-20T10:04:19.066Z,4.60
2022-11-20T10:07:31.279Z,4.60
2022-11-20T10:09:59.276Z,4.60
2022-11-20T10:12:29.565Z,4.70
2022-11-20T10:14:59.870Z,4.60
2022-11-20T10:18:15.231Z,4.70
2022-11-20T10:20:50.365Z,4.70
2022-11-20T10:23:26.471Z,4.80
2022-11-20T10:26:22.860Z,4.80
2022-11-20T10:29:09.083Z,4.80
2022-11-20T10:31:41.383Z,4.90
2022-11-20T10:34:54.632Z,4.80
2022-11-20T10:37:27.634Z,4.80
2022-11-20T10:40:01.616Z,4.80
2022-11-20T10:42:57.948Z,4.80
2022-11-20T10:45:25.408Z,4.70
2022-11-20T10:48:01.389Z,4.70
2022-11-20T10:50:32.020Z,4.70
2022-11-20T10:53:29.990Z,4.70
2022-11-20T10:56:08.566Z,4.70
2022-11-20T10:58:56.424Z,4.80
2022-11-20T11:01:24.710Z,4.90
2022-11-20T11:03:58.274Z,4.90
2022-11-20T11:06:36.203Z,4.90
2022-11-20T11:09:16.747Z,4.90
2022-11-20T11:11:45.536Z,5.10
2022-11-20T11:14:16.023Z,5.10
2022-11-20T11:16:54.904Z,5.10
2022-11-20T11:19:22.676Z,5.20
2022-11-20T11:21:56.256Z,5.30
2022-11-20T11:24:46.520Z,5.20
2022-11-20T11:27:18.946Z,5.10
2022-11-20T11:29:47.756Z,4.60
2022-11-20T11:32:16.624Z,4.20
2022-11-20T11:34:43.919Z,3.80
2022-11-20T11:37:36.037Z,3.80
2022-11-20T11:40:23.347Z,3.90
2022-11-20T11:43:00.799Z,3.90
2022-11-20T11:45:28.638Z,4.10
2022-11-20T11:47:59.359Z,4.20
2022-11-20T11:50:28.915Z,4.30
2022-11-20T11:53:02.243Z,4.40
2022-11-20T11:55:46.886Z,4.30
2022-11-20T11:58:43.954Z,4.40
2022-11-20T12:01:33.955Z,4.20
2022-11-20T12:04:42.889Z,4.40
2022-11-20T12:10:18.557Z,4.80
2022-11-20T12:13:08.497Z,5.00
2022-11-20T12:15:36.639Z,5.00
2022-11-20T12:18:14.818Z,5.00
2022-11-20T12:21:11.793Z,5.00
2022-11-20T12:23:53.865Z,4.90
2022-11-20T12:26:41.710Z,4.80
2022-11-20T12:29:18.286Z,4.70
2022-11-20T12:32:04.951Z,4.60
2022-11-20T12:35:01.616Z,4.50
2022-11-20T12:37:37.813Z,4.40
2022-11-20T12:40:29.771Z,4.50
2022-11-20T12:43:31.172Z,4.50
2022-11-20T12:46:17.372Z,4.50
2022-11-20T12:49:15.067Z,4.60
2022-11-20T12:52:22.592Z,4.70
2022-11-20T12:55:04.437Z,4.50
2022-11-20T12:57:51.157Z,4.50
2022-11-20T13:00:22.265Z,4.40
2022-11-20T13:03:18.195Z,4.40
2022-11-20T13:06:09.615Z,4.40
2022-11-20T13:08:41.438Z,4.40
2022-11-20T13:11:30.076Z,4.30
2022-11-20T13:14:43.098Z,4.40
2022-11-20T13:17:25.935Z,4.30
2022-11-20T13:19:59.842Z,4.30
2022-11-20T13:22:45.717Z,4.20
2022-11-20T13:25:51.136Z,4.20
2022-11-20T13:28:18.896Z,4.20
2022-11-20T13:30:54.253Z,4.20
2022-11-20T13:33:31.848Z,4.10
2022-11-20T13:36:07.977Z,4.10
2022-11-20T13:38:52.099Z,4.10
2022-11-20T13:41:29.487Z,4.00
2022-11-20T13:44:21.243Z,4.00
2022-11-20T13:46:48.730Z,4.00
2022-11-20T13:49:45.143Z,4.00
2022-11-20T13:52:27.974Z,3.90
2022-11-20T13:55:33.886Z,3.90
2022-11-20T13:58:33.609Z,3.80
2022-11-20T14:01:24.143Z,3.80
2022-11-20T14:04:08.326Z,3.80
2022-11-20T14:06:45.149Z,3.80
2022-11-20T14:09:33.264Z,3.80
2022-11-20T14:12:01.101Z,3.80
2022-11-20T14:14:30.567Z,3.80
2022-11-20T14:17:19.953Z,3.80
2022-11-20T14:19:49.556Z,3.80
2022-11-20T14:22:24.579Z,3.80
2022-11-20T14:25:13.182Z,3.80
2022-11-20T14:27:43.147Z,3.80
2022-11-20T14:30:25.667Z,3.80
2022-11-20T14:32:56.540Z,3.80
2022-11-20T14:35:25.114Z,3.80
2022-11-20T14:37:53.253Z,3.80
2022-11-20T14:40:30.846Z,3.80
2022-11-20T14:42:59.462Z,3.80
2022-11-20T14:45:27.619Z,3.80
2022-11-20T14:47:57.677Z,3.80
2022-11-20T14:50:30.409Z,3.80
2022-11-20T14:52:59.986Z,3.80
2022-11-20T14:55:37.079Z,3.70
2022-11-20T14:58:21.631Z,3.70
2022-11-20T15:01:04.480Z,3.80
2022-11-20T15:03:40.884Z,3.80
2022-11-20T15:06:12.835Z,3.80
2022-11-20T15:08:51.262Z,3.70
2022-11-20T15:11:32.864Z,3.80
2022-11-20T15:14:05.649Z,3.80
2022-11-20T15:16:34.349Z,3.80
2022-11-20T15:19:17.971Z,3.80
2022-11-20T15:21:45.320Z,3.70
2022-11-20T15:24:12.825Z,3.70
2022-11-20T15:26:42.862Z,3.70
2022-11-20T15:29:15.753Z,3.70
2022-11-20T15:31:44.420Z,3.70
2022-11-20T15:34:20.773Z,3.70
2022-11-20T15:36:48.175Z,3.70
2022-11-20T15:39:15.558Z,3.70
2022-11-20T15:41:43.108Z,3.80
2022-11-20T15:44:10.779Z,3.80
2022-11-20T15:46:43.397Z,3.70
2022-11-20T15:49:14.546Z,3.80
2022-11-20T15:51:45.193Z,3.80
2022-11-20T15:54:19.214Z,3.80
2022-11-20T15:56:50.668Z,3.80
2022-11-20T15:59:18.165Z,3.80
2022-11-20T16:01:46.256Z,3.80
2022-11-20T16:04:17.872Z,3.80
2022-11-20T16:06:45.275Z,3.90
2022-11-20T16:09:12.590Z,3.90
2022-11-20T16:11:40.783Z,3.90
2022-11-20T16:14:29.842Z,3.90
2022-11-20T16:16:57.359Z,3.90
2022-11-20T16:19:24.681Z,3.90
2022-11-20T16:21:52.524Z,3.90
2022-11-20T16:24:20.821Z,4.00
2022-11-20T16:26:48.257Z,4.00
2022-11-20T16:29:15.797Z,4.00
2022-11-20T16:31:43.047Z,4.00
2022-11-20T16:34:23.940Z,4.00
2022-11-20T16:36:51.491Z,4.10
2022-11-20T16:39:23.736Z,4.10
2022-11-20T16:41:51.661Z,4.10
2022-11-20T16:44:19.240Z,4.10
2022-11-20T16:46:46.614Z,4.10
2022-11-20T16:49:14.949Z,4.10
2022-11-20T16:51:42.990Z,4.10
2022-11-20T16:54:15.009Z,4.20
2022-11-20T16:56:48.084Z,4.20
2022-11-20T16:59:15.378Z,4.20
2022-11-20T17:01:44.129Z,4.20
2022-11-20T17:04:11.728Z,4.30
2022-11-20T17:06:44.323Z,4.30
2022-11-20T17:09:12.909Z,4.30
2022-11-20T17:11:40.398Z,4.30
2022-11-20T17:14:08.209Z,4.30
2022-11-20T17:16:37.416Z,4.40
2022-11-20T17:19:05.747Z,4.40
2022-11-20T17:21:36.096Z,4.30
2022-11-20T17:24:06.462Z,4.30
2022-11-20T17:26:35.118Z,4.30
2022-11-20T17:29:09.795Z,4.40
2022-11-20T17:31:40.920Z,4.30
2022-11-20T17:34:12.417Z,4.30
2022-11-20T17:36:45.220Z,4.20
2022-11-20T17:39:15.817Z,4.20
2022-11-20T17:41:43.523Z,4.10
2022-11-20T17:44:12.530Z,4.00
2022-11-20T17:46:40.433Z,3.90
2022-11-20T17:49:07.987Z,3.90
2022-11-20T17:51:35.849Z,3.80
2022-11-20T17:54:07.317Z,3.80
2022-11-20T17:56:54.773Z,3.70
2022-11-20T17:59:22.595Z,3.70
2022-11-20T18:01:51.370Z,3.70
2022-11-20T18:04:18.966Z,3.60
2022-11-20T18:06:46.803Z,3.60
2022-11-20T18:09:14.317Z,3.60
2022-11-20T18:11:43.759Z,3.70
2022-11-20T18:14:36.710Z,3.60
2022-11-20T18:17:14.928Z,3.60
2022-11-20T18:20:07.211Z,3.60
2022-11-20T18:22:35.480Z,3.60
2022-11-20T18:25:04.794Z,3.60
2022-11-20T18:27:32.315Z,3.60
2022-11-20T18:29:59.547Z,3.60
2022-11-20T18:32:27.465Z,3.60
2022-11-20T18:34:55.040Z,3.60
2022-11-20T18:37:22.499Z,3.60
2022-11-20T18:39:50.615Z,3.60
2022-11-20T18:42:36.486Z,3.70
2022-11-20T18:45:06.763Z,3.80
2022-11-20T18:47:38.031Z,3.90
2022-11-20T18:50:07.336Z,3.90
2022-11-20T18:52:44.552Z,4.00
2022-11-20T18:55:12.838Z,4.00
2022-11-20T18:57:40.453Z,4.10
2022-11-20T19:00:11.717Z,4.10
2022-11-20T19:02:42.698Z,4.20
2022-11-20T19:05:12.623Z,4.20
2022-11-20T19:07:40.438Z,4.20
2022-11-20T19:10:11.353Z,4.30
2022-11-20T19:12:38.862Z,4.30
2022-11-20T19:15:06.632Z,4.30
2022-11-20T19:17:34.260Z,4.30
2022-11-20T19:20:01.808Z,4.20
2022-11-20T19:22:30.205Z,4.30
2022-11-20T19:24:57.718Z,4.30
2022-11-20T19:27:25.266Z,4.30
2022-11-20T19:29:52.746Z,4.30
2022-11-20T19:32:21.749Z,4.40
2022-11-20T19:34:49.200Z,4.40
2022-11-20T19:37:16.727Z,4.40
2022-11-20T19:39:43.953Z,4.40
2022-11-20T19:42:11.301Z,4.40
2022-11-20T19:44:38.829Z,4.40
2022-11-20T19:47:13.006Z,4.40
2022-11-20T19:49:41.964Z,4.40
2022-11-20T19:52:09.617Z,4.40
2022-11-20T19:54:37.179Z,4.40
2022-11-20T19:57:04.576Z,4.40
2022-11-20T19:59:32.073Z,4.40
2022-11-20T20:01:59.569Z,4.50
2022-11-20T20:04:27.556Z,4.40
2022-11-20T20:06:55.102Z,4.40
2022-11-20T20:09:23.851Z,4.40
2022-11-20T20:11:51.513Z,4.40
2022-11-20T20:14:19.303Z,4.40
2022-11-20T20:16:47.129Z,4.40
2022-11-20T20:19:16.507Z,4.40
2022-11-20T20:21:44.483Z,4.40
2022-11-20T20:24:12.325Z,4.40
2022-11-20T20:26:39.895Z,4.50
2022-11-20T20:29:07.186Z,4.50
2022-11-20T20:31:35.369Z,4.50
2022-11-20T20:34:05.489Z,4.50
2022-11-20T20:36:33.581Z,4.50
2022-11-20T20:39:02.727Z,4.60
2022-11-20T20:41:31.731Z,4.60
2022-11-20T20:44:17.625Z,4.60
2022-11-20T20:46:45.067Z,4.70
2022-11-20T20:49:13.444Z,4.60
2022-11-20T20:51:41.011Z,4.60
2022-11-20T20:54:08.462Z,4.70
2022-11-20T20:56:35.968Z,4.70
2022-11-20T20:59:04.482Z,4.70
2022-11-20T21:01:32.390Z,4.70
2022-11-20T21:04:00.085Z,4.70
2022-11-20T21:06:27.905Z,4.80
2022-11-20T21:08:57.402Z,4.80
2022-11-20T21:11:24.795Z,4.90
2022-11-20T21:13:52.095Z,5.00
2022-11-20T21:16:22.467Z,5.00
2022-11-20T21:18:49.972Z,5.00
2022-11-20T21:21:36.793Z,4.90
2022-11-20T21:24:04.678Z,5.00
2022-11-20T21:26:31.987Z,5.10
2022-11-20T21:28:59.496Z,5.10
2022-11-20T21:31:27.571Z,5.00
2022-11-20T21:33:56.595Z,5.00
2022-11-20T21:36:26.716Z,5.00
2022-11-20T21:38:55.516Z,4.90
2022-11-20T21:41:24.134Z,4.90
2022-11-20T21:44:23.545Z,4.90
2022-11-20T21:46:41.846Z,4.90
2022-11-20T21:49:10.255Z,4.80
2022-11-20T21:51:37.866Z,4.80
2022-11-20T21:54:05.287Z,4.80
2022-11-20T21:56:32.969Z,4.80
2022-11-20T21:59:00.621Z,4.70
2022-11-20T22:01:30.139Z,4.70
2022-11-20T22:04:02.716Z,4.70
2022-11-20T22:06:32.876Z,4.80
2022-11-20T22:09:01.527Z,4.80
2022-11-20T22:11:28.809Z,4.80
2022-11-20T22:14:14.555Z,4.80
2022-11-20T22:16:42.108Z,4.70
2022-11-20T22:19:09.459Z,4.80
2022-11-20T22:21:39.549Z,4.70
2022-11-20T22:24:06.923Z,4.80
2022-11-20T22:26:40.137Z,4.70
2022-11-20T22:29:08.944Z,4.70
2022-11-20T22:31:36.688Z,4.70
2022-11-20T22:34:04.197Z,4.60
2022-11-20T22:36:32.290Z,4.70
2022-11-20T22:39:03.305Z,4.70
2022-11-20T22:41:31.361Z,4.70
2022-11-20T22:44:04.176Z,4.70
2022-11-20T22:46:34.177Z,4.70
2022-11-20T22:49:04.467Z,4.60
2022-11-20T22:51:35.804Z,4.70
2022-11-20T22:54:04.186Z,4.60
2022-11-20T22:56:31.624Z,4.50
2022-11-20T22:58:59.074Z,4.60
2022-11-20T23:01:28.602Z,4.60
2022-11-20T23:04:01.320Z,4.60
2022-11-20T23:06:29.522Z,4.70
2022-11-20T23:08:57.092Z,4.60
2022-11-20T23:11:28.694Z,4.60
2022-11-20T23:14:16.127Z,4.70
2022-11-20T23:16:43.642Z,4.60
2022-11-20T23:19:14.331Z,4.60
2022-11-20T23:21:43.064Z,4.70
2022-11-20T23:24:11.324Z,4.70
2022-11-20T23:26:40.235Z,4.60
2022-11-20T23:29:07.773Z,4.60
2022-11-20T23:31:36.245Z,4.60
2022-11-20T23:34:04.208Z,4.60
2022-11-20T23:36:31.560Z,4.60
2022-11-20T23:38:58.795Z,4.60
2022-11-20T23:41:26.222Z,4.60
2022-11-20T23:43:54.038Z,4.60
2022-11-20T23:46:21.668Z,4.60
2022-11-20T23:48:49.168Z,4.60
2022-11-20T23:51:17.649Z,4.60
2022-11-20T23:53:45.043Z,4.60
2022-11-20T23:56:14.833Z,4.70
2022-11-20T23:58:42.487Z,4.70
